createdAt,value
2018-07-26T00:00:53.541Z,19.61
2018-07-26T00:03:23.389Z,19.59
2018-07-26T00:05:52.213Z,19.59
2018-07-26T00:08:21.418Z,19.57
2018-07-26T00:10:50.458Z,19.57
2018-07-26T00:13:19.199Z,19.62
2018-07-26T00:15:48.085Z,19.68
2018-07-26T00:18:17.216Z,19.75
2018-07-26T00:20:46.276Z,19.72
2018-07-26T00:23:15.115Z,19.68
2018-07-26T00:25:44.037Z,19.66
2018-07-26T00:28:12.808Z,19.63
2018-07-26T00:30:41.819Z,19.60
2018-07-26T00:33:10.765Z,19.57
2018-07-26T00:35:39.762Z,19.57
2018-07-26T00:38:08.580Z,19.60
2018-07-26T00:40:37.465Z,19.58
2018-07-26T00:43:06.463Z,19.55
2018-07-26T00:45:35.705Z,19.56
2018-07-26T00:48:04.620Z,19.56
2018-07-26T00:50:33.505Z,19.55
2018-07-26T00:53:02.354Z,19.49
2018-07-26T00:55:30.877Z,19.46
2018-07-26T00:57:59.734Z,19.41
2018-07-26T01:00:28.512Z,19.35
2018-07-26T01:02:57.046Z,19.31
2018-07-26T01:05:25.624Z,19.33
2018-07-26T01:07:54.249Z,19.41
2018-07-26T01:10:22.930Z,19.46
2018-07-26T01:12:52.807Z,19.55
2018-07-26T01:15:21.547Z,19.54
2018-07-26T01:17:50.192Z,19.54
2018-07-26T01:20:18.845Z,19.48
2018-07-26T01:22:47.540Z,19.40
2018-07-26T01:25:16.218Z,19.30
2018-07-26T01:27:44.779Z,19.24
2018-07-26T01:30:13.445Z,19.21
2018-07-26T01:32:42.039Z,19.19
2018-07-26T01:35:10.699Z,19.15
2018-07-26T01:37:39.498Z,19.14
2018-07-26T01:40:08.073Z,19.18
2018-07-26T01:42:49.490Z,19.23
2018-07-26T01:45:18.030Z,19.23
2018-07-26T01:47:46.591Z,19.21
2018-07-26T01:50:15.143Z,19.16
2018-07-26T01:52:43.682Z,19.09
2018-07-26T01:55:12.351Z,19.01
2018-07-26T01:57:40.883Z,18.99
2018-07-26T02:00:09.681Z,18.95
2018-07-26T02:02:38.399Z,18.91
2018-07-26T02:05:07.094Z,18.90
2018-07-26T02:07:35.756Z,18.85
2018-07-26T02:10:04.436Z,18.82
2018-07-26T02:12:35.411Z,18.79
2018-07-26T02:15:04.131Z,18.75
2018-07-26T02:17:32.791Z,18.75
2018-07-26T02:20:01.554Z,18.76
2018-07-26T02:22:30.270Z,18.77
2018-07-26T02:24:58.935Z,18.73
2018-07-26T02:27:27.716Z,18.69
2018-07-26T02:29:56.266Z,18.64
2018-07-26T02:32:24.906Z,18.61
2018-07-26T02:34:53.560Z,18.60
2018-07-26T02:37:22.195Z,18.57
2018-07-26T02:39:50.883Z,18.55
2018-07-26T02:42:19.522Z,18.57
2018-07-26T02:44:48.223Z,18.64
2018-07-26T02:47:16.925Z,18.69
2018-07-26T02:49:45.585Z,18.70
2018-07-26T02:52:14.229Z,18.69
2018-07-26T02:54:42.869Z,18.71
2018-07-26T02:57:11.518Z,18.70
2018-07-26T02:59:40.207Z,18.70
2018-07-26T03:02:08.983Z,18.71
2018-07-26T03:04:37.738Z,18.73
2018-07-26T03:07:06.850Z,18.73
2018-07-26T03:09:35.471Z,18.75
2018-07-26T03:12:04.062Z,18.76
2018-07-26T03:14:36.846Z,18.75
2018-07-26T03:17:05.560Z,18.74
2018-07-26T03:19:34.230Z,18.78
2018-07-26T03:22:02.795Z,18.81
2018-07-26T03:24:31.526Z,18.83
2018-07-26T03:27:00.182Z,18.84
2018-07-26T03:29:28.772Z,18.84
2018-07-26T03:31:57.506Z,18.83
2018-07-26T03:34:26.149Z,18.83
2018-07-26T03:36:54.742Z,18.81
2018-07-26T03:39:23.456Z,18.86
2018-07-26T03:41:52.140Z,18.92
2018-07-26T03:44:20.905Z,19.01
2018-07-26T03:46:49.597Z,19.09
2018-07-26T03:49:18.303Z,19.15
2018-07-26T03:51:47.018Z,19.24
2018-07-26T03:54:15.649Z,19.33
2018-07-26T03:56:44.485Z,19.44
2018-07-26T03:59:13.043Z,19.53
2018-07-26T04:01:41.729Z,19.60
2018-07-26T04:04:11.424Z,19.64
2018-07-26T04:06:40.620Z,19.73
2018-07-26T04:09:16.271Z,19.76
2018-07-26T04:11:46.060Z,19.77
2018-07-26T04:14:14.756Z,19.80
2018-07-26T04:16:43.406Z,19.83
2018-07-26T04:19:12.649Z,19.87
2018-07-26T04:21:41.970Z,19.92
2018-07-26T04:24:10.708Z,19.98
2018-07-26T04:26:39.424Z,20.03
2018-07-26T04:29:08.125Z,20.08
2018-07-26T04:31:36.874Z,20.13
2018-07-26T04:34:13.139Z,20.18
2018-07-26T04:36:41.880Z,20.24
2018-07-26T04:39:10.991Z,20.31
2018-07-26T04:41:39.773Z,20.35
2018-07-26T04:44:08.578Z,20.39
2018-07-26T04:46:37.349Z,20.43
2018-07-26T04:49:05.960Z,20.46
2018-07-26T04:51:34.695Z,20.51
2018-07-26T04:54:03.419Z,20.57
2018-07-26T04:56:32.063Z,20.65
2018-07-26T04:59:00.873Z,20.75
2018-07-26T05:01:29.623Z,20.83
2018-07-26T05:03:58.410Z,20.93
2018-07-26T05:06:27.116Z,21.04
2018-07-26T05:08:55.853Z,21.14
2018-07-26T05:11:24.580Z,21.24
2018-07-26T05:13:53.224Z,21.34
2018-07-26T05:16:22.029Z,21.43
2018-07-26T05:18:50.613Z,21.51
2018-07-26T05:21:19.315Z,21.59
2018-07-26T05:23:47.966Z,21.68
2018-07-26T05:26:16.680Z,21.76
2018-07-26T05:28:45.443Z,21.83
2018-07-26T05:31:14.267Z,21.91
2018-07-26T05:33:42.994Z,21.95
2018-07-26T05:36:11.845Z,21.99
2018-07-26T05:38:40.479Z,22.04
2018-07-26T05:41:09.229Z,22.12
2018-07-26T05:43:37.890Z,22.23
2018-07-26T05:46:07.404Z,22.37
2018-07-26T05:48:36.199Z,22.54
2018-07-26T05:51:04.946Z,22.74
2018-07-26T05:53:33.713Z,22.96
2018-07-26T05:56:02.477Z,23.18
2018-07-26T05:58:31.139Z,23.44
2018-07-26T06:00:59.930Z,23.65
2018-07-26T06:03:28.565Z,23.84
2018-07-26T06:05:57.263Z,24.07
2018-07-26T06:08:25.995Z,24.23
2018-07-26T06:10:54.616Z,24.30
2018-07-26T06:13:23.399Z,24.42
2018-07-26T06:15:51.976Z,24.55
2018-07-26T06:18:20.798Z,24.71
2018-07-26T06:20:49.814Z,24.82
2018-07-26T06:23:18.579Z,24.96
2018-07-26T06:25:47.297Z,25.05
2018-07-26T06:28:16.034Z,25.19
2018-07-26T06:30:44.801Z,25.36
2018-07-26T06:33:13.434Z,25.47
2018-07-26T06:35:42.036Z,25.60
2018-07-26T06:38:11.191Z,25.76
2018-07-26T06:40:39.806Z,25.92
2018-07-26T06:43:08.586Z,26.04
2018-07-26T06:45:37.474Z,26.14
2018-07-26T06:48:07.051Z,26.21
2018-07-26T06:50:35.665Z,26.23
2018-07-26T06:53:04.563Z,26.32
2018-07-26T06:55:33.179Z,26.44
2018-07-26T06:58:01.926Z,26.54
2018-07-26T07:00:30.564Z,26.62
2018-07-26T07:02:59.263Z,26.69
2018-07-26T07:05:27.921Z,26.82
2018-07-26T07:07:56.649Z,26.97
2018-07-26T07:10:25.272Z,27.06
2018-07-26T07:12:54.085Z,27.22
2018-07-26T07:15:22.840Z,27.30
2018-07-26T07:17:51.518Z,27.32
2018-07-26T07:20:20.133Z,27.36
2018-07-26T07:22:48.941Z,27.34
2018-07-26T07:25:17.837Z,27.36
2018-07-26T07:27:46.693Z,27.32
2018-07-26T07:30:15.447Z,27.37
2018-07-26T07:32:44.097Z,27.41
2018-07-26T07:35:12.879Z,27.48
2018-07-26T07:37:41.545Z,27.51
2018-07-26T07:40:10.930Z,27.53
2018-07-26T07:42:39.899Z,27.54
2018-07-26T07:45:09.510Z,27.56
2018-07-26T07:47:38.299Z,27.60
2018-07-26T07:50:07.119Z,27.61
2018-07-26T07:52:35.863Z,27.60
2018-07-26T07:55:05.135Z,27.63
2018-07-26T07:57:33.858Z,27.65
2018-07-26T08:00:02.803Z,27.73
2018-07-26T08:02:31.461Z,27.77
2018-07-26T08:05:01.307Z,27.81
2018-07-26T08:07:30.018Z,27.95
2018-07-26T08:09:58.791Z,28.04
2018-07-26T08:12:27.528Z,28.19
2018-07-26T08:14:58.343Z,28.34
2018-07-26T08:17:27.075Z,28.46
2018-07-26T08:19:56.870Z,28.49
2018-07-26T08:22:25.527Z,28.60
2018-07-26T08:24:55.404Z,28.79
2018-07-26T08:27:24.675Z,28.94
2018-07-26T08:29:53.454Z,29.07
2018-07-26T08:32:22.095Z,29.17
2018-07-26T08:34:55.892Z,29.27
2018-07-26T08:37:24.569Z,29.41
2018-07-26T08:39:53.192Z,29.52
2018-07-26T08:42:21.896Z,29.64
2018-07-26T08:44:50.819Z,29.77
2018-07-26T08:47:19.527Z,29.91
2018-07-26T08:49:48.267Z,30.02
2018-07-26T08:52:17.056Z,30.10
2018-07-26T08:54:46.184Z,30.21
2018-07-26T08:57:14.820Z,30.38
2018-07-26T08:59:52.323Z,30.50
2018-07-26T09:02:27.568Z,30.66
2018-07-26T09:05:06.420Z,30.77
2018-07-26T09:07:44.438Z,30.95
2018-07-26T09:10:17.891Z,31.19
2018-07-26T09:12:46.603Z,31.37
2018-07-26T09:15:23.627Z,31.58
2018-07-26T09:18:10.429Z,31.71
2018-07-26T09:20:52.279Z,31.86
2018-07-26T09:23:25.702Z,31.95
2018-07-26T09:26:17.553Z,32.10
2018-07-26T09:28:58.782Z,32.23
2018-07-26T09:31:28.360Z,32.31
2018-07-26T09:33:57.000Z,32.47
2018-07-26T09:36:25.717Z,32.58
2018-07-26T09:38:54.556Z,32.69
2018-07-26T09:41:23.290Z,32.90
2018-07-26T09:43:51.955Z,33.02
2018-07-26T09:46:20.764Z,33.11
2018-07-26T09:48:49.542Z,33.20
2018-07-26T09:51:18.161Z,33.30
2018-07-26T09:53:46.995Z,33.32
2018-07-26T09:56:15.690Z,33.27
2018-07-26T09:58:44.405Z,33.32
2018-07-26T10:01:18.500Z,33.55
2018-07-26T10:03:47.352Z,33.76
2018-07-26T10:06:16.121Z,33.85
2018-07-26T10:08:44.968Z,33.81
2018-07-26T10:11:13.559Z,33.77
2018-07-26T10:13:43.554Z,33.83
2018-07-26T10:16:12.647Z,33.88
2018-07-26T10:18:41.779Z,33.89
2018-07-26T10:21:10.473Z,33.95
2018-07-26T10:23:39.107Z,33.98
2018-07-26T10:26:08.792Z,34.04
2018-07-26T10:28:38.533Z,34.15
2018-07-26T10:31:07.980Z,34.26
2018-07-26T10:33:36.632Z,34.38
2018-07-26T10:36:07.855Z,34.56
2018-07-26T10:38:36.487Z,34.57
2018-07-26T10:41:05.271Z,34.68
2018-07-26T10:43:34.205Z,34.76
2018-07-26T10:46:02.951Z,34.78
2018-07-26T10:48:31.819Z,34.84
2018-07-26T10:51:00.471Z,34.90
2018-07-26T10:53:29.093Z,34.97
2018-07-26T10:55:57.805Z,34.98
2018-07-26T10:58:26.619Z,35.07
2018-07-26T11:00:56.351Z,35.09
2018-07-26T11:03:27.614Z,35.14
2018-07-26T11:06:05.441Z,35.18
2018-07-26T11:08:36.119Z,35.20
2018-07-26T11:11:04.952Z,35.18
2018-07-26T11:13:33.564Z,35.30
2018-07-26T11:16:02.251Z,35.42
2018-07-26T11:18:41.927Z,35.49
2018-07-26T11:21:10.679Z,35.50
2018-07-26T11:23:43.414Z,35.46
2018-07-26T11:26:12.230Z,35.66
2018-07-26T11:28:50.601Z,35.89
2018-07-26T11:31:19.252Z,36.13
2018-07-26T11:33:47.950Z,36.28
2018-07-26T11:36:16.660Z,36.44
2018-07-26T11:38:53.032Z,36.62
2018-07-26T11:41:21.771Z,36.68
2018-07-26T11:44:08.275Z,36.76
2018-07-26T11:46:37.262Z,36.89
2018-07-26T11:49:05.959Z,36.98
2018-07-26T11:51:34.670Z,37.03
2018-07-26T11:54:03.257Z,37.14
2018-07-26T11:56:32.057Z,37.35
2018-07-26T11:59:00.771Z,37.55
2018-07-26T12:01:29.756Z,37.69
2018-07-26T12:03:58.492Z,37.70
2018-07-26T12:06:27.189Z,37.81
2018-07-26T12:08:59.071Z,37.96
2018-07-26T12:11:27.768Z,37.80
2018-07-26T12:13:56.531Z,37.36
2018-07-26T12:16:32.296Z,37.35
2018-07-26T12:19:09.247Z,37.84
2018-07-26T12:21:37.897Z,38.43
2018-07-26T12:24:26.523Z,38.63
2018-07-26T12:26:55.222Z,38.95
2018-07-26T12:29:24.180Z,39.10
2018-07-26T12:31:52.971Z,39.23
2018-07-26T12:34:21.634Z,39.37
2018-07-26T12:36:50.399Z,39.61
2018-07-26T12:39:21.131Z,39.68
2018-07-26T12:41:49.812Z,39.53
2018-07-26T12:44:18.461Z,39.79
2018-07-26T12:46:47.286Z,40.04
2018-07-26T12:49:18.131Z,40.53
2018-07-26T12:51:47.440Z,42.16
2018-07-26T12:54:16.089Z,44.37
2018-07-26T12:56:44.984Z,46.39
2018-07-26T12:59:13.806Z,48.53
2018-07-26T13:01:42.483Z,49.34
2018-07-26T13:04:11.268Z,50.13
2018-07-26T13:06:39.929Z,49.94
2018-07-26T13:09:12.275Z,47.63
2018-07-26T13:11:40.926Z,44.68
2018-07-26T13:14:09.948Z,43.11
2018-07-26T13:16:38.720Z,44.69
2018-07-26T13:19:15.215Z,46.71
2018-07-26T13:21:43.963Z,48.42
2018-07-26T13:24:12.701Z,50.09
2018-07-26T13:26:41.490Z,51.31
2018-07-26T13:29:13.581Z,51.26
2018-07-26T13:31:42.285Z,51.98
2018-07-26T13:34:11.092Z,52.31
2018-07-26T13:36:39.903Z,52.33
2018-07-26T13:39:13.651Z,52.92
2018-07-26T13:41:43.419Z,53.41
2018-07-26T13:44:12.237Z,53.43
2018-07-26T13:46:40.985Z,52.99
2018-07-26T13:49:11.742Z,53.69
2018-07-26T13:51:40.585Z,53.88
2018-07-26T13:54:09.502Z,54.13
2018-07-26T13:56:49.360Z,54.14
2018-07-26T13:59:31.303Z,53.96
2018-07-26T14:02:18.926Z,54.06
2018-07-26T14:04:59.675Z,53.91
2018-07-26T14:07:41.510Z,54.38
2018-07-26T14:10:27.342Z,54.48
2018-07-26T14:13:14.634Z,54.69
2018-07-26T14:15:44.622Z,55.12
2018-07-26T14:18:14.050Z,55.30
2018-07-26T14:20:42.744Z,55.11
2018-07-26T14:23:16.691Z,55.35
2018-07-26T14:25:46.014Z,54.93
2018-07-26T14:28:15.809Z,54.78
2018-07-26T14:30:44.625Z,54.40
2018-07-26T14:33:13.353Z,54.40
2018-07-26T14:35:42.003Z,54.18
2018-07-26T14:38:10.850Z,53.26
2018-07-26T14:40:39.487Z,53.34
2018-07-26T14:43:08.325Z,52.69
2018-07-26T14:45:37.066Z,52.13
2018-07-26T14:48:05.762Z,51.79
2018-07-26T14:50:35.067Z,51.96
2018-07-26T14:53:03.900Z,52.40
2018-07-26T14:55:32.672Z,52.91
2018-07-26T14:58:01.340Z,53.08
2018-07-26T15:00:30.086Z,53.11
2018-07-26T15:02:58.994Z,53.28
2018-07-26T15:05:27.688Z,53.38
2018-07-26T15:07:56.370Z,53.09
2018-07-26T15:10:29.593Z,53.22
2018-07-26T15:12:58.238Z,53.49
2018-07-26T15:15:26.973Z,53.71
2018-07-26T15:17:55.711Z,53.73
2018-07-26T15:20:38.981Z,53.97
2018-07-26T15:23:07.683Z,52.65
2018-07-26T15:25:36.364Z,50.82
2018-07-26T15:28:05.002Z,50.99
2018-07-26T15:30:50.228Z,50.95
2018-07-26T15:33:18.885Z,48.11
2018-07-26T15:35:47.660Z,46.39
2018-07-26T15:38:16.400Z,47.70
2018-07-26T15:40:45.146Z,49.52
2018-07-26T15:43:14.068Z,50.89
2018-07-26T15:45:43.005Z,51.76
2018-07-26T15:48:11.752Z,52.00
2018-07-26T15:50:41.433Z,52.43
2018-07-26T15:53:10.200Z,52.82
2018-07-26T15:55:38.903Z,52.77
2018-07-26T15:58:07.699Z,52.95
2018-07-26T16:00:36.561Z,53.48
2018-07-26T16:03:05.432Z,53.33
2018-07-26T16:05:34.114Z,52.49
2018-07-26T16:08:02.785Z,52.72
2018-07-26T16:10:31.759Z,53.13
2018-07-26T16:13:00.860Z,52.77
2018-07-26T16:15:29.619Z,52.71
2018-07-26T16:17:58.476Z,52.59
2018-07-26T16:20:28.317Z,52.30
2018-07-26T16:22:56.945Z,52.32
2018-07-26T16:25:25.691Z,52.20
2018-07-26T16:27:54.859Z,51.86
2018-07-26T16:30:23.815Z,51.64
2018-07-26T16:32:52.502Z,51.23
2018-07-26T16:35:21.190Z,51.35
2018-07-26T16:37:50.063Z,51.07
2018-07-26T16:40:19.944Z,50.36
2018-07-26T16:42:48.584Z,50.24
2018-07-26T16:45:17.252Z,50.32
2018-07-26T16:47:45.992Z,50.25
2018-07-26T16:50:14.672Z,50.14
2018-07-26T16:52:43.345Z,49.81
2018-07-26T16:55:12.016Z,49.48
2018-07-26T16:57:40.726Z,49.32
2018-07-26T17:00:10.121Z,49.05
2018-07-26T17:02:38.957Z,48.84
2018-07-26T17:05:08.494Z,48.92
2018-07-26T17:07:37.299Z,48.92
2018-07-26T17:10:07.147Z,48.79
2018-07-26T17:12:35.903Z,48.45
2018-07-26T17:15:05.591Z,47.80
2018-07-26T17:17:34.239Z,47.33
2018-07-26T17:20:02.865Z,47.05
2018-07-26T17:22:31.540Z,46.85
2018-07-26T17:25:00.325Z,46.26
2018-07-26T17:27:29.207Z,46.09
2018-07-26T17:29:58.005Z,45.85
2018-07-26T17:32:26.920Z,45.80
2018-07-26T17:34:55.745Z,45.36
2018-07-26T17:37:24.291Z,44.77
2018-07-26T17:39:53.141Z,44.49
2018-07-26T17:42:21.895Z,44.23
2018-07-26T17:44:50.652Z,43.41
2018-07-26T17:47:19.419Z,42.18
2018-07-26T17:49:48.054Z,40.91
2018-07-26T17:52:16.650Z,39.67
2018-07-26T17:54:45.502Z,38.87
2018-07-26T17:57:14.270Z,38.46
2018-07-26T17:59:45.733Z,38.26
2018-07-26T18:02:14.610Z,38.01
2018-07-26T18:04:43.274Z,37.54
2018-07-26T18:07:11.909Z,36.96
2018-07-26T18:09:40.648Z,36.44
2018-07-26T18:12:09.379Z,35.91
2018-07-26T18:14:38.178Z,35.51
2018-07-26T18:17:06.938Z,35.15
2018-07-26T18:19:35.688Z,34.79
2018-07-26T18:22:04.547Z,34.36
2018-07-26T18:24:33.309Z,33.94
2018-07-26T18:27:02.217Z,33.58
2018-07-26T18:29:30.991Z,33.27
2018-07-26T18:31:59.672Z,33.00
2018-07-26T18:34:28.307Z,32.77
2018-07-26T18:36:57.113Z,32.61
2018-07-26T18:39:25.921Z,32.41
2018-07-26T18:41:56.807Z,32.27
2018-07-26T18:44:25.585Z,31.97
2018-07-26T18:46:54.364Z,31.63
2018-07-26T18:49:23.123Z,31.29
2018-07-26T18:51:51.857Z,30.92
2018-07-26T18:54:20.541Z,30.59
2018-07-26T18:56:49.330Z,30.28
2018-07-26T18:59:17.984Z,29.99
2018-07-26T19:01:46.855Z,29.78
2018-07-26T19:04:15.561Z,29.57
2018-07-26T19:06:44.280Z,29.41
2018-07-26T19:09:13.572Z,29.19
2018-07-26T19:11:42.963Z,28.93
2018-07-26T19:14:11.831Z,28.66
2018-07-26T19:16:40.683Z,28.45
2018-07-26T19:19:09.600Z,28.22
2018-07-26T19:21:38.259Z,27.98
2018-07-26T19:24:07.035Z,27.79
2018-07-26T19:26:35.758Z,27.73
2018-07-26T19:29:04.651Z,27.59
2018-07-26T19:31:33.431Z,27.38
2018-07-26T19:34:02.092Z,27.22
2018-07-26T19:36:30.816Z,27.05
2018-07-26T19:38:59.592Z,26.86
2018-07-26T19:41:28.271Z,26.67
2018-07-26T19:43:56.953Z,26.48
2018-07-26T19:46:26.547Z,26.42
2018-07-26T19:48:55.255Z,26.35
2018-07-26T19:51:25.582Z,26.23
2018-07-26T19:53:54.277Z,26.08
2018-07-26T19:56:22.976Z,25.97
2018-07-26T19:58:51.778Z,25.97
2018-07-26T20:01:20.384Z,25.90
2018-07-26T20:03:49.269Z,25.75
2018-07-26T20:06:17.921Z,25.59
2018-07-26T20:08:46.634Z,25.45
2018-07-26T20:11:15.452Z,25.30
2018-07-26T20:13:44.114Z,25.22
2018-07-26T20:16:12.836Z,25.13
2018-07-26T20:18:41.610Z,25.01
2018-07-26T20:21:10.437Z,24.93
2018-07-26T20:23:39.156Z,24.82
2018-07-26T20:26:07.819Z,24.64
2018-07-26T20:28:36.486Z,24.51
2018-07-26T20:31:05.309Z,24.41
2018-07-26T20:33:34.075Z,24.34
2018-07-26T20:36:02.852Z,24.27
2018-07-26T20:38:31.513Z,24.19
2018-07-26T20:41:00.258Z,24.14
2018-07-26T20:43:28.910Z,24.12
2018-07-26T20:45:57.620Z,24.04
2018-07-26T20:48:26.285Z,23.98
2018-07-26T20:50:55.163Z,23.96
2018-07-26T20:53:23.880Z,23.91
2018-07-26T20:55:52.545Z,23.84
2018-07-26T20:58:21.235Z,23.77
2018-07-26T21:00:49.810Z,23.67
2018-07-26T21:03:18.544Z,23.57
2018-07-26T21:05:47.242Z,23.54
2018-07-26T21:08:15.916Z,23.49
2018-07-26T21:10:44.647Z,23.44
2018-07-26T21:13:13.186Z,23.34
2018-07-26T21:15:41.914Z,23.27
2018-07-26T21:18:10.687Z,23.18
2018-07-26T21:20:39.412Z,23.07
2018-07-26T21:23:08.229Z,22.98
2018-07-26T21:25:36.923Z,22.92
2018-07-26T21:28:05.541Z,22.90
2018-07-26T21:30:34.306Z,22.87
2018-07-26T21:33:02.904Z,22.87
2018-07-26T21:35:31.504Z,22.82
2018-07-26T21:38:00.165Z,22.75
2018-07-26T21:40:28.783Z,22.66
2018-07-26T21:42:57.467Z,22.58
2018-07-26T21:45:26.285Z,22.50
2018-07-26T21:47:54.971Z,22.47
2018-07-26T21:50:23.735Z,22.45
2018-07-26T21:52:52.408Z,22.51
2018-07-26T21:55:21.148Z,22.55
2018-07-26T21:57:49.635Z,22.53
2018-07-26T22:00:18.368Z,22.55
2018-07-26T22:02:46.955Z,22.58
2018-07-26T22:05:15.751Z,22.57
2018-07-26T22:07:44.334Z,22.54
2018-07-26T22:10:13.061Z,22.51
2018-07-26T22:12:41.801Z,22.48
2018-07-26T22:15:10.500Z,22.42
2018-07-26T22:17:39.236Z,22.34
2018-07-26T22:20:08.009Z,22.24
2018-07-26T22:22:36.627Z,22.13
2018-07-26T22:25:05.603Z,22.08
2018-07-26T22:27:34.226Z,22.01
2018-07-26T22:30:03.025Z,21.96
2018-07-26T22:32:31.746Z,21.92
2018-07-26T22:35:00.480Z,21.85
2018-07-26T22:37:29.267Z,21.78
2018-07-26T22:39:57.986Z,21.72
2018-07-26T22:42:26.570Z,21.64
2018-07-26T22:44:55.266Z,21.56
2018-07-26T22:47:23.981Z,21.53
2018-07-26T22:49:52.772Z,21.51
2018-07-26T22:52:21.494Z,21.45
2018-07-26T22:54:50.260Z,21.44
2018-07-26T22:57:18.858Z,21.44
2018-07-26T22:59:47.550Z,21.42
2018-07-26T23:02:16.317Z,21.40
2018-07-26T23:04:45.125Z,21.36
2018-07-26T23:07:14.783Z,21.36
2018-07-26T23:09:43.441Z,21.34
2018-07-26T23:12:14.181Z,21.40
2018-07-26T23:14:42.799Z,21.41
2018-07-26T23:17:11.927Z,21.40
2018-07-26T23:19:40.580Z,21.39
2018-07-26T23:22:09.415Z,21.37
2018-07-26T23:24:38.103Z,21.36
2018-07-26T23:27:06.795Z,21.32
2018-07-26T23:29:35.442Z,21.27
2018-07-26T23:32:04.010Z,21.23
2018-07-26T23:34:32.503Z,21.22
2018-07-26T23:37:01.151Z,21.21
2018-07-26T23:39:29.682Z,21.21
2018-07-26T23:41:58.337Z,21.20
2018-07-26T23:44:26.916Z,21.14
2018-07-26T23:46:55.552Z,21.13
2018-07-26T23:49:24.156Z,21.10
2018-07-26T23:51:52.931Z,21.09
2018-07-26T23:54:21.584Z,21.10
2018-07-26T23:56:50.322Z,21.12
2018-07-26T23:59:18.950Z,21.11
